createdAt,value
2019-06-26T00:01:09.245Z,28.47
2019-06-26T00:06:11.307Z,28.36
2019-06-26T00:11:13.407Z,28.35
2019-06-26T00:16:15.893Z,28.30
2019-06-26T00:21:17.934Z,28.13
2019-06-26T00:26:19.966Z,28.08
2019-06-26T00:31:22.034Z,28.01
2019-06-26T00:36:24.118Z,27.90
2019-06-26T00:41:26.225Z,27.88
2019-06-26T00:46:28.292Z,27.74
2019-06-26T00:51:30.358Z,27.67
2019-06-26T00:56:32.353Z,27.63
2019-06-26T01:01:34.511Z,27.56
2019-06-26T01:06:42.289Z,27.52
2019-06-26T01:11:45.181Z,27.50
2019-06-26T01:16:47.302Z,27.44
2019-06-26T01:21:49.437Z,27.33
2019-06-26T01:26:51.505Z,27.26
2019-06-26T01:31:53.550Z,27.22
2019-06-26T01:36:55.626Z,27.06
2019-06-26T01:41:57.755Z,27.05
2019-06-26T01:46:59.837Z,26.96
2019-06-26T01:52:01.918Z,26.95
2019-06-26T01:57:03.970Z,26.83
2019-06-26T02:02:06.176Z,26.83
2019-06-26T02:07:08.274Z,26.83
2019-06-26T02:12:10.375Z,26.79
2019-06-26T02:17:12.539Z,26.70
2019-06-26T02:22:14.600Z,26.64
2019-06-26T02:27:16.708Z,26.58
2019-06-26T02:32:18.883Z,26.59
2019-06-26T02:37:23.332Z,26.57
2019-06-26T02:42:25.419Z,26.52
2019-06-26T02:47:27.458Z,26.44
2019-06-26T02:52:29.592Z,26.36
2019-06-26T02:57:31.681Z,26.33
2019-06-26T03:02:33.743Z,26.29
2019-06-26T03:07:35.839Z,26.20
2019-06-26T03:12:38.129Z,26.10
2019-06-26T03:17:54.336Z,26.12
2019-06-26T03:22:45.568Z,26.06
2019-06-26T03:27:50.075Z,26.10
2019-06-26T03:32:52.424Z,26.04
2019-06-26T03:37:54.462Z,25.96
2019-06-26T03:42:56.511Z,26.12
2019-06-26T03:47:58.630Z,26.12
2019-06-26T03:53:00.863Z,26.19
2019-06-26T03:58:22.674Z,26.12
2019-06-26T04:03:25.076Z,26.18
2019-06-26T04:08:27.194Z,26.24
2019-06-26T04:13:32.079Z,26.31
2019-06-26T04:18:34.204Z,26.39
2019-06-26T04:23:36.226Z,26.37
2019-06-26T04:28:38.439Z,26.41
2019-06-26T04:33:40.500Z,26.39
2019-06-26T04:38:42.615Z,26.50
2019-06-26T04:43:44.658Z,26.51
2019-06-26T04:48:46.710Z,26.65
2019-06-26T04:53:48.898Z,26.77
2019-06-26T04:58:50.990Z,27.04
2019-06-26T05:04:02.919Z,27.36
2019-06-26T05:09:39.498Z,27.52
2019-06-26T05:14:50.623Z,27.90
2019-06-26T05:19:52.896Z,28.28
2019-06-26T05:24:55.035Z,28.90
2019-06-26T05:29:58.843Z,31.21
2019-06-26T05:35:01.009Z,33.55
2019-06-26T05:40:23.638Z,32.73
2019-06-26T05:45:26.894Z,32.11
2019-06-26T05:50:31.999Z,32.69
2019-06-26T05:55:36.951Z,33.87
2019-06-26T06:00:39.072Z,33.55
2019-06-26T06:05:41.335Z,34.03
2019-06-26T06:10:43.656Z,36.49
2019-06-26T06:15:45.728Z,37.80
2019-06-26T06:20:47.814Z,39.03
2019-06-26T06:25:49.923Z,39.97
2019-06-26T06:30:52.015Z,40.71
2019-06-26T06:35:54.064Z,41.47
2019-06-26T06:40:56.114Z,41.89
2019-06-26T06:46:01.284Z,42.63
2019-06-26T06:51:04.102Z,43.10
2019-06-26T06:56:06.233Z,43.71
2019-06-26T07:01:08.575Z,43.57
2019-06-26T07:06:10.647Z,41.08
2019-06-26T07:11:12.688Z,40.09
2019-06-26T07:16:14.787Z,41.92
2019-06-26T07:21:16.952Z,41.44
2019-06-26T07:26:19.071Z,40.36
2019-06-26T07:31:21.222Z,42.19
2019-06-26T07:36:24.561Z,42.22
2019-06-26T07:41:26.890Z,42.04
2019-06-26T07:46:28.912Z,41.84
2019-06-26T07:51:30.981Z,41.62
2019-06-26T07:56:33.035Z,41.16
2019-06-26T08:01:37.660Z,40.73
2019-06-26T08:06:39.905Z,40.51
2019-06-26T08:11:41.974Z,40.20
2019-06-26T08:16:44.146Z,40.03
2019-06-26T08:21:46.893Z,40.08
2019-06-26T08:26:49.110Z,40.06
2019-06-26T08:31:51.160Z,40.01
2019-06-26T08:36:53.309Z,39.98
2019-06-26T08:41:55.494Z,39.90
2019-06-26T08:46:57.649Z,39.72
2019-06-26T08:52:00.035Z,39.62
2019-06-26T08:57:02.095Z,39.40
2019-06-26T09:02:04.165Z,39.24
2019-06-26T09:07:06.312Z,39.14
2019-06-26T09:12:10.270Z,39.18
2019-06-26T09:17:12.451Z,39.17
2019-06-26T09:22:14.544Z,39.15
2019-06-26T09:27:16.589Z,39.17
2019-06-26T09:32:18.649Z,39.13
2019-06-26T09:37:20.771Z,39.03
2019-06-26T09:42:23.252Z,39.03
2019-06-26T09:47:25.292Z,38.85
2019-06-26T09:52:27.372Z,38.81
2019-06-26T09:57:29.463Z,38.84
2019-06-26T10:02:31.527Z,38.73
2019-06-26T10:07:33.580Z,38.63
2019-06-26T10:12:35.750Z,38.72
2019-06-26T10:17:37.894Z,38.48
2019-06-26T10:22:39.960Z,38.40
2019-06-26T10:27:42.534Z,38.15
2019-06-26T10:32:44.591Z,38.00
2019-06-26T10:37:46.849Z,38.17
2019-06-26T10:42:48.881Z,38.39
2019-06-26T10:47:50.951Z,38.56
2019-06-26T10:52:53.041Z,38.75
2019-06-26T10:57:55.105Z,38.81
2019-06-26T11:02:57.249Z,38.94
2019-06-26T11:07:59.395Z,39.07
2019-06-26T11:13:01.454Z,39.09
2019-06-26T11:18:03.544Z,39.23
2019-06-26T11:23:05.685Z,39.15
2019-06-26T11:28:07.809Z,39.11
2019-06-26T11:33:09.955Z,39.09
2019-06-26T11:38:12.018Z,39.11
2019-06-26T11:43:14.035Z,39.16
2019-06-26T11:48:16.108Z,39.09
2019-06-26T11:53:18.140Z,39.22
2019-06-26T11:58:20.356Z,39.10
2019-06-26T12:03:22.431Z,38.99
2019-06-26T12:08:24.505Z,38.94
2019-06-26T12:13:26.620Z,38.99
2019-06-26T12:18:28.840Z,38.87
2019-06-26T12:23:33.287Z,38.83
2019-06-26T12:28:35.361Z,38.83
2019-06-26T12:33:37.420Z,38.81
2019-06-26T12:38:40.799Z,38.79
2019-06-26T12:43:42.801Z,38.86
2019-06-26T12:48:47.921Z,38.77
2019-06-26T12:53:50.133Z,38.71
2019-06-26T12:58:52.351Z,38.73
2019-06-26T13:03:54.529Z,38.75
2019-06-26T13:08:56.718Z,38.58
2019-06-26T13:14:02.972Z,38.58
2019-06-26T13:19:03.149Z,38.59
2019-06-26T13:24:05.247Z,38.57
2019-06-26T13:29:09.731Z,38.56
2019-06-26T13:34:12.032Z,38.51
2019-06-26T13:39:14.100Z,38.41
2019-06-26T13:44:16.175Z,38.41
2019-06-26T13:49:18.287Z,38.37
2019-06-26T13:54:20.444Z,38.27
2019-06-26T13:59:22.520Z,38.34
2019-06-26T14:04:24.609Z,38.35
2019-06-26T14:09:26.680Z,38.21
2019-06-26T14:14:52.560Z,38.13
2019-06-26T14:19:39.584Z,38.12
2019-06-26T14:24:41.893Z,38.07
2019-06-26T14:29:44.134Z,38.05
2019-06-26T14:34:46.225Z,37.94
2019-06-26T14:39:48.340Z,37.87
2019-06-26T14:44:52.734Z,37.75
2019-06-26T14:49:54.459Z,37.72
2019-06-26T14:54:56.639Z,37.66
2019-06-26T14:59:58.807Z,37.56
2019-06-26T15:05:03.639Z,37.42
2019-06-26T15:10:08.792Z,37.41
2019-06-26T15:15:11.282Z,37.41
2019-06-26T15:20:14.994Z,37.38
2019-06-26T15:25:22.877Z,37.37
2019-06-26T15:30:25.014Z,37.24
2019-06-26T15:35:27.074Z,37.10
2019-06-26T15:40:29.161Z,37.02
2019-06-26T15:45:34.706Z,36.94
2019-06-26T15:50:36.915Z,36.88
2019-06-26T15:55:39.229Z,36.78
2019-06-26T16:00:41.286Z,36.74
2019-06-26T16:05:43.473Z,36.66
2019-06-26T16:10:48.610Z,36.54
2019-06-26T16:15:51.395Z,36.40
2019-06-26T16:20:53.482Z,36.33
2019-06-26T16:25:55.696Z,36.20
2019-06-26T16:30:57.812Z,36.08
2019-06-26T16:36:00.045Z,36.01
2019-06-26T16:41:03.546Z,35.95
2019-06-26T16:46:05.822Z,35.85
2019-06-26T16:51:11.236Z,35.69
2019-06-26T16:56:13.362Z,35.57
2019-06-26T17:01:15.377Z,35.49
2019-06-26T17:06:17.582Z,35.38
2019-06-26T17:11:20.105Z,35.29
2019-06-26T17:16:25.180Z,35.15
2019-06-26T17:21:27.252Z,35.07
2019-06-26T17:26:29.379Z,35.01
2019-06-26T17:31:31.436Z,34.91
2019-06-26T17:36:33.577Z,34.80
2019-06-26T17:41:35.725Z,34.73
2019-06-26T17:46:37.782Z,34.59
2019-06-26T17:51:39.955Z,34.54
2019-06-26T17:56:42.023Z,34.45
2019-06-26T18:01:46.276Z,34.40
2019-06-26T18:06:48.375Z,34.25
2019-06-26T18:11:50.616Z,34.12
2019-06-26T18:16:52.705Z,33.97
2019-06-26T18:21:54.876Z,33.80
2019-06-26T18:26:59.161Z,33.71
2019-06-26T18:32:03.071Z,33.62
2019-06-26T18:37:05.203Z,33.42
2019-06-26T18:42:07.291Z,33.30
2019-06-26T18:47:09.383Z,33.20
2019-06-26T18:52:11.448Z,33.13
2019-06-26T18:57:14.749Z,33.04
2019-06-26T19:02:16.842Z,32.96
2019-06-26T19:07:18.899Z,32.83
2019-06-26T19:12:21.053Z,32.79
2019-06-26T19:17:37.465Z,32.72
2019-06-26T19:22:47.347Z,32.61
2019-06-26T19:27:47.947Z,32.51
2019-06-26T19:32:51.259Z,32.42
2019-06-26T19:37:53.440Z,32.31
2019-06-26T19:42:55.630Z,32.25
2019-06-26T19:48:00.879Z,32.17
2019-06-26T19:53:02.964Z,32.12
2019-06-26T19:58:04.978Z,32.02
2019-06-26T20:03:07.034Z,31.89
2019-06-26T20:08:09.215Z,31.74
2019-06-26T20:13:11.283Z,31.64
2019-06-26T20:18:13.339Z,31.54
2019-06-26T20:23:15.416Z,31.44
2019-06-26T20:28:17.463Z,31.39
2019-06-26T20:33:19.534Z,31.23
2019-06-26T20:38:21.711Z,31.11
2019-06-26T20:43:23.928Z,31.03
2019-06-26T20:48:26.122Z,30.98
2019-06-26T20:53:28.436Z,30.86
2019-06-26T20:58:30.504Z,30.73
2019-06-26T21:03:32.562Z,30.67
2019-06-26T21:08:34.603Z,30.58
2019-06-26T21:13:36.694Z,30.45
2019-06-26T21:18:38.743Z,30.36
2019-06-26T21:23:40.968Z,30.24
2019-06-26T21:28:43.015Z,30.12
2019-06-26T21:33:45.126Z,30.04
2019-06-26T21:38:47.174Z,29.87
2019-06-26T21:43:49.267Z,29.81
2019-06-26T21:48:51.363Z,29.71
2019-06-26T21:53:53.404Z,29.71
2019-06-26T21:58:55.463Z,29.64
2019-06-26T22:03:57.743Z,29.42
2019-06-26T22:08:59.796Z,29.31
2019-06-26T22:14:01.884Z,29.31
2019-06-26T22:19:04.073Z,29.19
2019-06-26T22:24:06.168Z,29.06
2019-06-26T22:29:08.278Z,28.95
2019-06-26T22:34:10.466Z,28.89
2019-06-26T22:39:12.600Z,28.86
2019-06-26T22:44:14.687Z,28.77
2019-06-26T22:49:16.758Z,28.65
2019-06-26T22:54:19.872Z,28.55
2019-06-26T22:59:22.362Z,28.49
2019-06-26T23:04:24.417Z,28.36
2019-06-26T23:09:26.507Z,28.26
2019-06-26T23:14:28.734Z,28.21
2019-06-26T23:19:33.172Z,28.09
2019-06-26T23:24:35.345Z,28.10
2019-06-26T23:29:37.430Z,28.03
2019-06-26T23:34:39.691Z,27.87
2019-06-26T23:39:42.053Z,27.86
2019-06-26T23:44:44.183Z,27.68
2019-06-26T23:49:46.241Z,27.60
2019-06-26T23:54:48.324Z,27.60
2019-06-26T23:59:50.413Z,27.56
